sensor_id;sensor_type;location;lat;lon;timestamp;temperature;humidity
44817;DHT22;30529;53.570;9.964;2023-04-03T00:01:38;1.70;99.90
44817;DHT22;30529;53.570;9.964;2023-04-03T00:04:05;1.70;99.90
44817;DHT22;30529;53.570;9.964;2023-04-03T00:06:32;1.70;99.90
44817;DHT22;30529;53.570;9.964;2023-04-03T00:08:58;1.70;99.90
44817;DHT22;30529;53.570;9.964;2023-04-03T00:11:24;1.70;99.90
44817;DHT22;30529;53.570;9.964;2023-04-03T00:13:50;1.60;99.90
44817;DHT22;30529;53.570;9.964;2023-04-03T00:16:17;1.60;99.90
44817;DHT22;30529;53.570;9.964;2023-04-03T00:18:43;1.60;99.90
44817;DHT22;30529;53.570;9.964;2023-04-03T00:21:12;1.60;99.90
44817;DHT22;30529;53.570;9.964;2023-04-03T00:23:38;1.60;99.90
44817;DHT22;30529;53.570;9.964;2023-04-03T00:26:04;1.60;99.90
44817;DHT22;30529;53.570;9.964;2023-04-03T00:28:30;1.60;99.90
44817;DHT22;30529;53.570;9.964;2023-04-03T00:30:56;1.60;99.90
44817;DHT22;30529;53.570;9.964;2023-04-03T00:33:22;1.60;99.90
44817;DHT22;30529;53.570;9.964;2023-04-03T00:35:50;1.60;99.90
44817;DHT22;30529;53.570;9.964;2023-04-03T00:38:16;1.60;99.90
44817;DHT22;30529;53.570;9.964;2023-04-03T00:40:45;1.60;99.90
44817;DHT22;30529;53.570;9.964;2023-04-03T00:43:23;1.60;99.90
44817;DHT22;30529;53.570;9.964;2023-04-03T00:45:54;1.60;99.90
44817;DHT22;30529;53.570;9.964;2023-04-03T00:48:25;1.60;99.90
44817;DHT22;30529;53.570;9.964;2023-04-03T00:50:52;1.60;99.90
44817;DHT22;30529;53.570;9.964;2023-04-03T00:53:22;1.60;99.90
44817;DHT22;30529;53.570;9.964;2023-04-03T00:55:51;1.50;99.90
44817;DHT22;30529;53.570;9.964;2023-04-03T00:58:20;1.60;99.90
44817;DHT22;30529;53.570;9.964;2023-04-03T01:00:50;1.60;99.90
44817;DHT22;30529;53.570;9.964;2023-04-03T01:03:22;1.60;99.90
44817;DHT22;30529;53.570;9.964;2023-04-03T01:05:48;1.60;99.90
44817;DHT22;30529;53.570;9.964;2023-04-03T01:08:14;1.50;99.90
44817;DHT22;30529;53.570;9.964;2023-04-03T01:10:40;1.50;99.90
44817;DHT22;30529;53.570;9.964;2023-04-03T01:13:25;1.50;99.90
44817;DHT22;30529;53.570;9.964;2023-04-03T01:15:51;1.60;99.90
44817;DHT22;30529;53.570;9.964;2023-04-03T01:18:17;1.60;99.90
44817;DHT22;30529;53.570;9.964;2023-04-03T01:26:30;1.50;99.90
44817;DHT22;30529;53.570;9.964;2023-04-03T01:28:59;1.50;99.90
44817;DHT22;30529;53.570;9.964;2023-04-03T01:33:53;1.50;99.90
44817;DHT22;30529;53.570;9.964;2023-04-03T01:36:28;1.50;99.90
44817;DHT22;30529;53.570;9.964;2023-04-03T01:38:55;1.40;99.90
44817;DHT22;30529;53.570;9.964;2023-04-03T01:41:22;1.50;99.90
44817;DHT22;30529;53.570;9.964;2023-04-03T01:43:49;1.40;99.90
44817;DHT22;30529;53.570;9.964;2023-04-03T01:46:18;1.40;99.90
44817;DHT22;30529;53.570;9.964;2023-04-03T01:48:45;1.40;99.90
44817;DHT22;30529;53.570;9.964;2023-04-03T01:51:11;1.40;99.90
44817;DHT22;30529;53.570;9.964;2023-04-03T01:53:37;1.40;99.90
44817;DHT22;30529;53.570;9.964;2023-04-03T01:56:04;1.40;99.90
44817;DHT22;30529;53.570;9.964;2023-04-03T01:58:30;1.40;99.90
44817;DHT22;30529;53.570;9.964;2023-04-03T02:00:56;1.40;99.90
44817;DHT22;30529;53.570;9.964;2023-04-03T02:03:22;1.40;99.90
44817;DHT22;30529;53.570;9.964;2023-04-03T02:05:49;1.40;99.90
44817;DHT22;30529;53.570;9.964;2023-04-03T02:08:15;1.30;99.90
44817;DHT22;30529;53.570;9.964;2023-04-03T02:10:44;1.30;99.90
44817;DHT22;30529;53.570;9.964;2023-04-03T02:13:12;1.30;99.90
44817;DHT22;30529;53.570;9.964;2023-04-03T02:15:39;1.30;99.90
44817;DHT22;30529;53.570;9.964;2023-04-03T02:18:06;1.30;99.90
44817;DHT22;30529;53.570;9.964;2023-04-03T02:20:31;1.30;99.90
44817;DHT22;30529;53.570;9.964;2023-04-03T02:22:58;1.20;99.90
44817;DHT22;30529;53.570;9.964;2023-04-03T02:25:24;1.20;99.90
44817;DHT22;30529;53.570;9.964;2023-04-03T02:27:50;1.10;99.90
44817;DHT22;30529;53.570;9.964;2023-04-03T02:30:16;1.10;99.90
44817;DHT22;30529;53.570;9.964;2023-04-03T02:32:42;1.10;99.90
44817;DHT22;30529;53.570;9.964;2023-04-03T02:35:09;1.00;99.90
44817;DHT22;30529;53.570;9.964;2023-04-03T02:37:35;1.00;99.90
44817;DHT22;30529;53.570;9.964;2023-04-03T02:40:02;1.10;99.90
44817;DHT22;30529;53.570;9.964;2023-04-03T02:42:28;1.00;99.90
44817;DHT22;30529;53.570;9.964;2023-04-03T02:44:54;1.10;99.90
44817;DHT22;30529;53.570;9.964;2023-04-03T02:47:20;1.10;99.90
44817;DHT22;30529;53.570;9.964;2023-04-03T02:49:47;1.00;99.90
44817;DHT22;30529;53.570;9.964;2023-04-03T02:52:14;1.00;99.90
44817;DHT22;30529;53.570;9.964;2023-04-03T02:54:40;1.00;99.90
44817;DHT22;30529;53.570;9.964;2023-04-03T02:57:07;1.00;99.90
44817;DHT22;30529;53.570;9.964;2023-04-03T02:59:36;1.00;99.90
44817;DHT22;30529;53.570;9.964;2023-04-03T03:02:02;1.00;99.90
44817;DHT22;30529;53.570;9.964;2023-04-03T03:04:28;1.00;99.90
44817;DHT22;30529;53.570;9.964;2023-04-03T03:06:54;0.90;99.90
44817;DHT22;30529;53.570;9.964;2023-04-03T03:09:20;0.90;99.90
44817;DHT22;30529;53.570;9.964;2023-04-03T03:11:46;0.90;99.90
44817;DHT22;30529;53.570;9.964;2023-04-03T03:14:12;0.90;99.90
44817;DHT22;30529;53.570;9.964;2023-04-03T03:16:38;0.80;99.90
44817;DHT22;30529;53.570;9.964;2023-04-03T03:19:04;0.80;99.90
44817;DHT22;30529;53.570;9.964;2023-04-03T03:21:30;0.80;99.90
44817;DHT22;30529;53.570;9.964;2023-04-03T03:23:56;0.70;99.90
44817;DHT22;30529;53.570;9.964;2023-04-03T03:26:22;0.70;99.90
44817;DHT22;30529;53.570;9.964;2023-04-03T03:28:48;0.80;99.90
44817;DHT22;30529;53.570;9.964;2023-04-03T03:31:14;0.70;99.90
44817;DHT22;30529;53.570;9.964;2023-04-03T03:33:41;0.70;99.90
44817;DHT22;30529;53.570;9.964;2023-04-03T03:36:07;0.60;99.90
44817;DHT22;30529;53.570;9.964;2023-04-03T03:38:33;0.70;99.90
44817;DHT22;30529;53.570;9.964;2023-04-03T03:40:59;0.60;99.90
44817;DHT22;30529;53.570;9.964;2023-04-03T03:43:25;0.60;99.90
44817;DHT22;30529;53.570;9.964;2023-04-03T03:45:52;0.60;99.90
44817;DHT22;30529;53.570;9.964;2023-04-03T03:48:19;0.60;99.90
44817;DHT22;30529;53.570;9.964;2023-04-03T03:50:46;0.70;99.90
44817;DHT22;30529;53.570;9.964;2023-04-03T03:53:12;0.60;99.90
44817;DHT22;30529;53.570;9.964;2023-04-03T03:55:38;0.70;99.90
44817;DHT22;30529;53.570;9.964;2023-04-03T03:58:04;0.60;99.90
44817;DHT22;30529;53.570;9.964;2023-04-03T04:00:30;0.60;99.90
44817;DHT22;30529;53.570;9.964;2023-04-03T04:02:56;0.50;99.90
44817;DHT22;30529;53.570;9.964;2023-04-03T04:05:23;0.40;99.90
44817;DHT22;30529;53.570;9.964;2023-04-03T04:07:49;0.50;99.90
44817;DHT22;30529;53.570;9.964;2023-04-03T04:10:15;0.50;99.90
44817;DHT22;30529;53.570;9.964;2023-04-03T04:12:41;0.50;99.90
44817;DHT22;30529;53.570;9.964;2023-04-03T04:15:07;0.50;99.90
44817;DHT22;30529;53.570;9.964;2023-04-03T04:17:33;0.40;99.90
44817;DHT22;30529;53.570;9.964;2023-04-03T04:20:02;0.40;99.90
44817;DHT22;30529;53.570;9.964;2023-04-03T04:22:28;0.40;99.90
44817;DHT22;30529;53.570;9.964;2023-04-03T04:24:54;0.40;99.90
44817;DHT22;30529;53.570;9.964;2023-04-03T04:27:20;0.40;99.90
44817;DHT22;30529;53.570;9.964;2023-04-03T04:29:46;0.40;99.90
44817;DHT22;30529;53.570;9.964;2023-04-03T04:32:12;0.40;99.90
44817;DHT22;30529;53.570;9.964;2023-04-03T04:34:38;0.40;99.90
44817;DHT22;30529;53.570;9.964;2023-04-03T04:37:04;0.40;99.90
44817;DHT22;30529;53.570;9.964;2023-04-03T04:39:30;0.40;99.90
44817;DHT22;30529;53.570;9.964;2023-04-03T04:41:56;0.50;99.90
44817;DHT22;30529;53.570;9.964;2023-04-03T04:44:22;0.40;99.90
44817;DHT22;30529;53.570;9.964;2023-04-03T04:46:48;0.40;99.90
44817;DHT22;30529;53.570;9.964;2023-04-03T04:49:14;0.40;99.90
44817;DHT22;30529;53.570;9.964;2023-04-03T04:51:40;0.50;99.90
44817;DHT22;30529;53.570;9.964;2023-04-03T04:54:06;0.50;99.90
44817;DHT22;30529;53.570;9.964;2023-04-03T04:56:32;0.50;99.90
44817;DHT22;30529;53.570;9.964;2023-04-03T04:58:58;0.50;99.90
44817;DHT22;30529;53.570;9.964;2023-04-03T05:01:24;0.50;99.90
44817;DHT22;30529;53.570;9.964;2023-04-03T05:03:50;0.50;99.90
44817;DHT22;30529;53.570;9.964;2023-04-03T05:06:17;0.60;99.90
44817;DHT22;30529;53.570;9.964;2023-04-03T05:08:43;0.60;99.90
44817;DHT22;30529;53.570;9.964;2023-04-03T05:11:09;0.60;99.90
44817;DHT22;30529;53.570;9.964;2023-04-03T05:13:35;0.60;99.90
44817;DHT22;30529;53.570;9.964;2023-04-03T05:16:01;0.70;99.90
44817;DHT22;30529;53.570;9.964;2023-04-03T05:18:27;0.70;99.90
44817;DHT22;30529;53.570;9.964;2023-04-03T05:20:53;0.70;99.90
44817;DHT22;30529;53.570;9.964;2023-04-03T05:23:19;0.80;99.90
44817;DHT22;30529;53.570;9.964;2023-04-03T05:25:45;0.80;99.90
44817;DHT22;30529;53.570;9.964;2023-04-03T05:28:12;0.80;99.90
44817;DHT22;30529;53.570;9.964;2023-04-03T05:30:38;0.90;99.90
44817;DHT22;30529;53.570;9.964;2023-04-03T05:33:04;0.90;99.90
44817;DHT22;30529;53.570;9.964;2023-04-03T05:35:32;1.00;99.90
44817;DHT22;30529;53.570;9.964;2023-04-03T05:37:58;0.90;99.90
44817;DHT22;30529;53.570;9.964;2023-04-03T05:40:24;1.00;99.90
44817;DHT22;30529;53.570;9.964;2023-04-03T05:42:50;1.20;99.90
44817;DHT22;30529;53.570;9.964;2023-04-03T05:45:15;1.30;99.90
44817;DHT22;30529;53.570;9.964;2023-04-03T05:47:42;1.50;99.90
44817;DHT22;30529;53.570;9.964;2023-04-03T05:50:10;1.60;99.90
44817;DHT22;30529;53.570;9.964;2023-04-03T05:52:38;1.70;99.90
44817;DHT22;30529;53.570;9.964;2023-04-03T05:55:06;1.80;99.90
44817;DHT22;30529;53.570;9.964;2023-04-03T05:57:32;1.80;99.90
44817;DHT22;30529;53.570;9.964;2023-04-03T05:59:58;1.80;99.90
44817;DHT22;30529;53.570;9.964;2023-04-03T06:02:24;1.90;99.90
44817;DHT22;30529;53.570;9.964;2023-04-03T06:04:51;1.80;99.90
44817;DHT22;30529;53.570;9.964;2023-04-03T06:07:23;1.80;99.90
44817;DHT22;30529;53.570;9.964;2023-04-03T06:09:52;1.90;99.90
44817;DHT22;30529;53.570;9.964;2023-04-03T06:12:19;1.90;99.90
44817;DHT22;30529;53.570;9.964;2023-04-03T06:14:45;1.90;99.90
44817;DHT22;30529;53.570;9.964;2023-04-03T06:17:11;2.00;99.90
44817;DHT22;30529;53.570;9.964;2023-04-03T06:19:37;2.00;99.90
44817;DHT22;30529;53.570;9.964;2023-04-03T06:22:04;2.10;99.90
44817;DHT22;30529;53.570;9.964;2023-04-03T06:24:31;2.10;99.90
44817;DHT22;30529;53.570;9.964;2023-04-03T06:26:57;2.10;99.90
44817;DHT22;30529;53.570;9.964;2023-04-03T06:29:24;2.10;99.90
44817;DHT22;30529;53.570;9.964;2023-04-03T06:31:51;2.10;99.90
44817;DHT22;30529;53.570;9.964;2023-04-03T06:34:17;2.20;99.90
44817;DHT22;30529;53.570;9.964;2023-04-03T06:36:44;2.20;99.90
44817;DHT22;30529;53.570;9.964;2023-04-03T06:39:19;2.30;99.90
44817;DHT22;30529;53.570;9.964;2023-04-03T06:41:46;2.30;99.90
44817;DHT22;30529;53.570;9.964;2023-04-03T06:44:12;2.30;99.90
44817;DHT22;30529;53.570;9.964;2023-04-03T06:46:42;2.30;99.90
44817;DHT22;30529;53.570;9.964;2023-04-03T06:49:08;2.40;99.90
44817;DHT22;30529;53.570;9.964;2023-04-03T06:51:35;2.50;99.90
44817;DHT22;30529;53.570;9.964;2023-04-03T06:54:02;2.50;99.90
44817;DHT22;30529;53.570;9.964;2023-04-03T06:56:28;2.50;99.90
44817;DHT22;30529;53.570;9.964;2023-04-03T06:58:55;2.60;99.90
44817;DHT22;30529;53.570;9.964;2023-04-03T07:01:24;2.60;99.90
44817;DHT22;30529;53.570;9.964;2023-04-03T07:03:51;2.70;99.90
44817;DHT22;30529;53.570;9.964;2023-04-03T07:06:18;2.80;99.90
44817;DHT22;30529;53.570;9.964;2023-04-03T07:08:45;2.80;99.90
44817;DHT22;30529;53.570;9.964;2023-04-03T07:11:11;2.90;99.90
44817;DHT22;30529;53.570;9.964;2023-04-03T07:13:38;2.90;99.90
44817;DHT22;30529;53.570;9.964;2023-04-03T07:16:05;3.10;99.90
44817;DHT22;30529;53.570;9.964;2023-04-03T07:18:32;3.10;99.90
44817;DHT22;30529;53.570;9.964;2023-04-03T07:20:59;3.10;99.90
44817;DHT22;30529;53.570;9.964;2023-04-03T07:23:25;3.20;99.90
44817;DHT22;30529;53.570;9.964;2023-04-03T07:25:51;3.30;99.90
44817;DHT22;30529;53.570;9.964;2023-04-03T07:28:19;3.30;99.90
44817;DHT22;30529;53.570;9.964;2023-04-03T07:30:47;3.40;99.90
44817;DHT22;30529;53.570;9.964;2023-04-03T07:33:15;3.50;99.90
44817;DHT22;30529;53.570;9.964;2023-04-03T07:35:42;3.50;99.90
44817;DHT22;30529;53.570;9.964;2023-04-03T07:38:09;3.60;99.90
44817;DHT22;30529;53.570;9.964;2023-04-03T07:40:36;3.70;99.90
44817;DHT22;30529;53.570;9.964;2023-04-03T07:43:02;3.70;99.90
44817;DHT22;30529;53.570;9.964;2023-04-03T07:45:28;3.70;99.90
44817;DHT22;30529;53.570;9.964;2023-04-03T07:47:54;3.70;99.90
44817;DHT22;30529;53.570;9.964;2023-04-03T07:50:22;3.80;99.90
44817;DHT22;30529;53.570;9.964;2023-04-03T07:52:48;3.80;99.90
44817;DHT22;30529;53.570;9.964;2023-04-03T07:55:16;3.70;99.90
44817;DHT22;30529;53.570;9.964;2023-04-03T07:57:42;3.70;99.90
44817;DHT22;30529;53.570;9.964;2023-04-03T08:00:09;3.80;99.90
44817;DHT22;30529;53.570;9.964;2023-04-03T08:02:35;3.80;99.90
44817;DHT22;30529;53.570;9.964;2023-04-03T08:05:01;3.90;99.90
44817;DHT22;30529;53.570;9.964;2023-04-03T08:07:27;3.80;99.90
44817;DHT22;30529;53.570;9.964;2023-04-03T08:09:53;3.90;99.90
44817;DHT22;30529;53.570;9.964;2023-04-03T08:12:19;4.00;99.90
44817;DHT22;30529;53.570;9.964;2023-04-03T08:14:45;3.90;99.90
44817;DHT22;30529;53.570;9.964;2023-04-03T08:17:11;4.00;99.90
44817;DHT22;30529;53.570;9.964;2023-04-03T08:19:38;4.00;99.90
44817;DHT22;30529;53.570;9.964;2023-04-03T08:22:05;4.10;99.90
44817;DHT22;30529;53.570;9.964;2023-04-03T08:24:33;4.10;99.90
44817;DHT22;30529;53.570;9.964;2023-04-03T08:26:59;4.10;99.90
44817;DHT22;30529;53.570;9.964;2023-04-03T08:29:26;4.20;99.90
44817;DHT22;30529;53.570;9.964;2023-04-03T08:31:52;4.20;99.90
44817;DHT22;30529;53.570;9.964;2023-04-03T08:34:18;4.20;99.90
44817;DHT22;30529;53.570;9.964;2023-04-03T08:36:45;4.20;99.90
44817;DHT22;30529;53.570;9.964;2023-04-03T08:39:12;4.30;99.90
44817;DHT22;30529;53.570;9.964;2023-04-03T08:41:39;4.30;99.90
44817;DHT22;30529;53.570;9.964;2023-04-03T08:44:10;4.30;99.90
44817;DHT22;30529;53.570;9.964;2023-04-03T08:49:30;4.40;99.90
44817;DHT22;30529;53.570;9.964;2023-04-03T08:51:58;4.50;99.90
44817;DHT22;30529;53.570;9.964;2023-04-03T08:54:30;4.50;99.90
44817;DHT22;30529;53.570;9.964;2023-04-03T08:56:58;4.60;99.90
44817;DHT22;30529;53.570;9.964;2023-04-03T08:59:28;4.60;99.90
44817;DHT22;30529;53.570;9.964;2023-04-03T09:01:57;4.70;99.90
44817;DHT22;30529;53.570;9.964;2023-04-03T09:04:26;4.60;99.90
44817;DHT22;30529;53.570;9.964;2023-04-03T09:07:02;4.50;99.90
44817;DHT22;30529;53.570;9.964;2023-04-03T09:09:42;4.50;99.90
44817;DHT22;30529;53.570;9.964;2023-04-03T09:15:16;4.60;99.90
44817;DHT22;30529;53.570;9.964;2023-04-03T09:20:39;4.80;99.90
44817;DHT22;30529;53.570;9.964;2023-04-03T09:23:18;4.90;99.90
44817;DHT22;30529;53.570;9.964;2023-04-03T09:25:45;5.10;99.90
44817;DHT22;30529;53.570;9.964;2023-04-03T09:28:11;5.20;99.90
44817;DHT22;30529;53.570;9.964;2023-04-03T09:30:38;5.40;99.90
44817;DHT22;30529;53.570;9.964;2023-04-03T09:33:04;5.40;99.90
44817;DHT22;30529;53.570;9.964;2023-04-03T09:35:34;5.40;99.90
44817;DHT22;30529;53.570;9.964;2023-04-03T09:38:16;5.30;99.90
44817;DHT22;30529;53.570;9.964;2023-04-03T09:41:05;5.20;99.90
44817;DHT22;30529;53.570;9.964;2023-04-03T09:43:33;5.30;99.90
44817;DHT22;30529;53.570;9.964;2023-04-03T09:46:29;5.40;99.90
44817;DHT22;30529;53.570;9.964;2023-04-03T09:49:04;5.50;99.90
44817;DHT22;30529;53.570;9.964;2023-04-03T09:51:31;5.50;99.90
44817;DHT22;30529;53.570;9.964;2023-04-03T09:53:57;5.50;99.90
44817;DHT22;30529;53.570;9.964;2023-04-03T09:56:32;5.50;99.90
44817;DHT22;30529;53.570;9.964;2023-04-03T10:01:39;5.50;99.90
44817;DHT22;30529;53.570;9.964;2023-04-03T10:04:14;5.50;99.90
44817;DHT22;30529;53.570;9.964;2023-04-03T10:06:51;5.50;99.90
44817;DHT22;30529;53.570;9.964;2023-04-03T10:11:59;5.60;99.90
44817;DHT22;30529;53.570;9.964;2023-04-03T10:14:28;5.60;99.90
44817;DHT22;30529;53.570;9.964;2023-04-03T10:17:14;5.70;99.90
44817;DHT22;30529;53.570;9.964;2023-04-03T10:20:02;5.80;99.90
44817;DHT22;30529;53.570;9.964;2023-04-03T10:33:39;5.90;99.90
44817;DHT22;30529;53.570;9.964;2023-04-03T10:36:38;6.10;99.90
44817;DHT22;30529;53.570;9.964;2023-04-03T10:42:09;6.10;99.90
44817;DHT22;30529;53.570;9.964;2023-04-03T10:47:57;6.20;99.90
44817;DHT22;30529;53.570;9.964;2023-04-03T10:53:57;6.30;99.90
44817;DHT22;30529;53.570;9.964;2023-04-03T10:58:57;6.40;99.90
44817;DHT22;30529;53.570;9.964;2023-04-03T11:01:31;6.30;99.90
44817;DHT22;30529;53.570;9.964;2023-04-03T11:04:00;6.30;99.90
44817;DHT22;30529;53.570;9.964;2023-04-03T11:06:33;6.20;99.90
44817;DHT22;30529;53.570;9.964;2023-04-03T11:14:55;6.60;99.90
44817;DHT22;30529;53.570;9.964;2023-04-03T11:17:37;6.90;99.90
44817;DHT22;30529;53.570;9.964;2023-04-03T11:20:10;7.10;99.90
44817;DHT22;30529;53.570;9.964;2023-04-03T11:22:47;7.20;99.90
44817;DHT22;30529;53.570;9.964;2023-04-03T11:25:19;7.30;99.90
44817;DHT22;30529;53.570;9.964;2023-04-03T11:30:23;7.00;99.90
44817;DHT22;30529;53.570;9.964;2023-04-03T11:33:15;7.00;99.90
44817;DHT22;30529;53.570;9.964;2023-04-03T11:35:48;6.70;99.90
44817;DHT22;30529;53.570;9.964;2023-04-03T11:38:28;6.80;99.90
44817;DHT22;30529;53.570;9.964;2023-04-03T11:40:57;7.00;99.90
44817;DHT22;30529;53.570;9.964;2023-04-03T11:43:27;7.50;99.90
44817;DHT22;30529;53.570;9.964;2023-04-03T11:46:03;7.80;99.90
44817;DHT22;30529;53.570;9.964;2023-04-03T11:50:58;8.00;99.90
44817;DHT22;30529;53.570;9.964;2023-04-03T11:53:32;8.00;99.90
44817;DHT22;30529;53.570;9.964;2023-04-03T12:01:55;7.70;99.90
44817;DHT22;30529;53.570;9.964;2023-04-03T12:04:25;7.70;99.90
44817;DHT22;30529;53.570;9.964;2023-04-03T12:07:13;7.80;99.90
44817;DHT22;30529;53.570;9.964;2023-04-03T12:14:54;8.10;99.90
44817;DHT22;30529;53.570;9.964;2023-04-03T12:17:26;8.20;99.90
44817;DHT22;30529;53.570;9.964;2023-04-03T12:19:53;8.60;99.90
44817;DHT22;30529;53.570;9.964;2023-04-03T12:22:20;8.80;99.90
44817;DHT22;30529;53.570;9.964;2023-04-03T12:24:50;8.80;99.90
44817;DHT22;30529;53.570;9.964;2023-04-03T12:27:26;9.00;99.90
44817;DHT22;30529;53.570;9.964;2023-04-03T12:30:10;8.90;99.90
44817;DHT22;30529;53.570;9.964;2023-04-03T12:32:56;8.80;99.90
44817;DHT22;30529;53.570;9.964;2023-04-03T12:35:30;8.70;99.90
44817;DHT22;30529;53.570;9.964;2023-04-03T12:47:00;8.30;99.90
44817;DHT22;30529;53.570;9.964;2023-04-03T12:49:35;8.40;99.90
44817;DHT22;30529;53.570;9.964;2023-04-03T12:52:59;8.30;99.90
44817;DHT22;30529;53.570;9.964;2023-04-03T12:55:16;7.70;99.90
44817;DHT22;30529;53.570;9.964;2023-04-03T12:57:43;7.40;99.90
44817;DHT22;30529;53.570;9.964;2023-04-03T13:02:46;7.00;99.90
44817;DHT22;30529;53.570;9.964;2023-04-03T13:05:17;6.90;99.90
44817;DHT22;30529;53.570;9.964;2023-04-03T13:07:45;7.00;99.90
44817;DHT22;30529;53.570;9.964;2023-04-03T13:10:18;6.90;99.90
44817;DHT22;30529;53.570;9.964;2023-04-03T13:12:52;6.90;99.90
44817;DHT22;30529;53.570;9.964;2023-04-03T13:15:21;6.90;99.90
44817;DHT22;30529;53.570;9.964;2023-04-03T13:17:49;7.00;99.90
44817;DHT22;30529;53.570;9.964;2023-04-03T13:20:26;7.10;99.90
44817;DHT22;30529;53.570;9.964;2023-04-03T13:23:02;7.10;99.90
44817;DHT22;30529;53.570;9.964;2023-04-03T13:25:33;7.20;99.90
44817;DHT22;30529;53.570;9.964;2023-04-03T13:28:01;7.20;99.90
44817;DHT22;30529;53.570;9.964;2023-04-03T13:30:33;7.20;99.90
44817;DHT22;30529;53.570;9.964;2023-04-03T13:33:05;7.10;99.90
44817;DHT22;30529;53.570;9.964;2023-04-03T13:35:37;7.10;99.90
44817;DHT22;30529;53.570;9.964;2023-04-03T13:38:23;7.00;99.90
44817;DHT22;30529;53.570;9.964;2023-04-03T13:40:55;6.90;99.90
44817;DHT22;30529;53.570;9.964;2023-04-03T13:43:26;6.80;99.90
44817;DHT22;30529;53.570;9.964;2023-04-03T13:48:39;6.80;99.90
44817;DHT22;30529;53.570;9.964;2023-04-03T13:53:50;7.00;99.90
44817;DHT22;30529;53.570;9.964;2023-04-03T13:56:33;7.00;99.90
44817;DHT22;30529;53.570;9.964;2023-04-03T14:04:55;7.00;99.90
44817;DHT22;30529;53.570;9.964;2023-04-03T14:07:22;7.00;99.90
44817;DHT22;30529;53.570;9.964;2023-04-03T14:09:49;6.90;99.90
44817;DHT22;30529;53.570;9.964;2023-04-03T14:12:27;6.80;99.90
44817;DHT22;30529;53.570;9.964;2023-04-03T14:14:55;6.80;99.90
44817;DHT22;30529;53.570;9.964;2023-04-03T14:17:24;6.90;99.90
44817;DHT22;30529;53.570;9.964;2023-04-03T14:19:52;6.90;99.90
44817;DHT22;30529;53.570;9.964;2023-04-03T14:22:30;6.90;99.90
44817;DHT22;30529;53.570;9.964;2023-04-03T14:24:57;6.80;99.90
44817;DHT22;30529;53.570;9.964;2023-04-03T14:27:26;6.80;99.90
44817;DHT22;30529;53.570;9.964;2023-04-03T14:29:54;6.80;99.90
44817;DHT22;30529;53.570;9.964;2023-04-03T14:32:22;6.80;99.90
44817;DHT22;30529;53.570;9.964;2023-04-03T14:34:49;6.80;99.90
44817;DHT22;30529;53.570;9.964;2023-04-03T14:37:21;6.90;99.90
44817;DHT22;30529;53.570;9.964;2023-04-03T14:39:49;7.00;99.90
44817;DHT22;30529;53.570;9.964;2023-04-03T14:42:20;7.00;99.90
44817;DHT22;30529;53.570;9.964;2023-04-03T14:44:46;7.00;99.90
44817;DHT22;30529;53.570;9.964;2023-04-03T14:47:14;7.00;99.90
44817;DHT22;30529;53.570;9.964;2023-04-03T14:49:41;7.00;99.90
44817;DHT22;30529;53.570;9.964;2023-04-03T14:52:24;6.90;99.90
44817;DHT22;30529;53.570;9.964;2023-04-03T14:54:51;6.80;99.90
44817;DHT22;30529;53.570;9.964;2023-04-03T14:57:18;6.90;99.90
44817;DHT22;30529;53.570;9.964;2023-04-03T14:59:45;7.00;99.90
44817;DHT22;30529;53.570;9.964;2023-04-03T15:02:28;7.00;99.90
44817;DHT22;30529;53.570;9.964;2023-04-03T15:04:56;7.00;99.90
44817;DHT22;30529;53.570;9.964;2023-04-03T15:07:23;7.10;99.90
44817;DHT22;30529;53.570;9.964;2023-04-03T15:09:50;7.10;99.90
44817;DHT22;30529;53.570;9.964;2023-04-03T15:12:16;7.10;99.90
44817;DHT22;30529;53.570;9.964;2023-04-03T15:14:42;7.20;99.90
44817;DHT22;30529;53.570;9.964;2023-04-03T15:17:15;7.20;99.90
44817;DHT22;30529;53.570;9.964;2023-04-03T15:19:42;7.20;99.90
44817;DHT22;30529;53.570;9.964;2023-04-03T15:22:16;7.20;99.90
44817;DHT22;30529;53.570;9.964;2023-04-03T15:24:43;7.20;99.90
44817;DHT22;30529;53.570;9.964;2023-04-03T15:27:11;7.20;99.90
44817;DHT22;30529;53.570;9.964;2023-04-03T15:29:38;7.20;99.90
44817;DHT22;30529;53.570;9.964;2023-04-03T15:32:05;7.20;99.90
44817;DHT22;30529;53.570;9.964;2023-04-03T15:34:32;7.20;99.90
44817;DHT22;30529;53.570;9.964;2023-04-03T15:36:58;7.10;99.90
44817;DHT22;30529;53.570;9.964;2023-04-03T15:39:27;7.00;99.90
44817;DHT22;30529;53.570;9.964;2023-04-03T15:41:53;7.00;99.90
44817;DHT22;30529;53.570;9.964;2023-04-03T15:44:20;7.20;99.90
44817;DHT22;30529;53.570;9.964;2023-04-03T15:46:47;7.30;99.90
44817;DHT22;30529;53.570;9.964;2023-04-03T15:49:19;7.20;99.90
44817;DHT22;30529;53.570;9.964;2023-04-03T15:51:46;7.20;99.90
44817;DHT22;30529;53.570;9.964;2023-04-03T15:54:12;7.10;99.90
44817;DHT22;30529;53.570;9.964;2023-04-03T15:56:38;7.00;99.90
44817;DHT22;30529;53.570;9.964;2023-04-03T15:59:04;6.90;99.90
44817;DHT22;30529;53.570;9.964;2023-04-03T16:01:31;6.80;99.90
44817;DHT22;30529;53.570;9.964;2023-04-03T16:03:57;6.80;99.90
44817;DHT22;30529;53.570;9.964;2023-04-03T16:06:24;6.80;99.90
44817;DHT22;30529;53.570;9.964;2023-04-03T16:08:50;6.80;99.90
44817;DHT22;30529;53.570;9.964;2023-04-03T16:11:17;6.90;99.90
44817;DHT22;30529;53.570;9.964;2023-04-03T16:13:43;7.10;99.90
44817;DHT22;30529;53.570;9.964;2023-04-03T16:16:09;7.20;99.90
44817;DHT22;30529;53.570;9.964;2023-04-03T16:18:35;7.20;99.90
44817;DHT22;30529;53.570;9.964;2023-04-03T16:21:02;7.10;99.90
44817;DHT22;30529;53.570;9.964;2023-04-03T16:23:28;7.00;99.90
44817;DHT22;30529;53.570;9.964;2023-04-03T16:25:54;7.00;99.90
44817;DHT22;30529;53.570;9.964;2023-04-03T16:28:20;6.80;99.90
44817;DHT22;30529;53.570;9.964;2023-04-03T16:30:46;6.60;99.90
44817;DHT22;30529;53.570;9.964;2023-04-03T16:33:13;6.60;99.90
44817;DHT22;30529;53.570;9.964;2023-04-03T16:35:40;6.50;99.90
44817;DHT22;30529;53.570;9.964;2023-04-03T16:38:10;6.40;99.90
44817;DHT22;30529;53.570;9.964;2023-04-03T16:40:36;6.30;99.90
44817;DHT22;30529;53.570;9.964;2023-04-03T16:43:02;6.30;99.90
44817;DHT22;30529;53.570;9.964;2023-04-03T16:45:28;6.20;99.90
44817;DHT22;30529;53.570;9.964;2023-04-03T16:47:54;6.20;99.90
44817;DHT22;30529;53.570;9.964;2023-04-03T16:50:20;6.10;99.90
44817;DHT22;30529;53.570;9.964;2023-04-03T16:52:46;6.10;99.90
44817;DHT22;30529;53.570;9.964;2023-04-03T16:55:19;6.10;99.90
44817;DHT22;30529;53.570;9.964;2023-04-03T16:57:46;6.10;99.90
44817;DHT22;30529;53.570;9.964;2023-04-03T17:00:13;6.10;99.90
44817;DHT22;30529;53.570;9.964;2023-04-03T17:02:49;6.10;99.90
44817;DHT22;30529;53.570;9.964;2023-04-03T17:05:15;6.00;99.90
44817;DHT22;30529;53.570;9.964;2023-04-03T17:07:41;6.00;99.90
44817;DHT22;30529;53.570;9.964;2023-04-03T17:10:07;5.90;99.90
44817;DHT22;30529;53.570;9.964;2023-04-03T17:12:33;5.80;99.90
44817;DHT22;30529;53.570;9.964;2023-04-03T17:14:59;5.80;99.90
44817;DHT22;30529;53.570;9.964;2023-04-03T17:17:25;5.70;99.90
44817;DHT22;30529;53.570;9.964;2023-04-03T17:19:52;5.70;99.90
44817;DHT22;30529;53.570;9.964;2023-04-03T17:22:37;5.70;99.90
44817;DHT22;30529;53.570;9.964;2023-04-03T17:25:13;5.60;99.90